Latest Weather Observations for Tuggeranong

IDN60901

Issued at 4:21 pm EST Sunday 11 April 2021 (issued every 10 minutes, with the page automatically refreshed every 10 minutes)

About weather observations | Map of Canberra area stations | Latest observations for Canberra area | Other Formats
Station Details ID: 070339 Name: TUGGERANONG (ISABELLA PLAINS) AWS Lat: -35.42 Lon: 149.09 Height: 586.7 m
Data from the previous 72 hours. | See also: Recent months at Tuggeranong
Date/Time
EST
Temp
°C
App
Temp
°C
Dew
Point
°C
Rel
Hum
%
Delta-T
°C
Wind Press
QNH
hPa
Press
MSL
hPa
Rain since
9am
mm
Dir  Spd
km/h
Gust
km/h
Spd
kts
Gust
kts
11/04:00pm 12.1 6.3 -0.4 42 5.3 W 20 30 11 16 1012.3 1011.2 0.0
11/03:30pm 12.9 6.7 -0.4 40 5.7 W 22 37 12 20 1012.1 1011.0 0.0
11/03:00pm 11.9 5.9 -1.3 40 5.5 W 20 30 11 16 1011.6 1010.6 0.0
11/02:30pm 11.8 5.5 -1.0 41 5.3 SW 22 35 12 19 1011.4 1010.4 0.0
11/02:00pm 12.9 7.0 -0.7 39 5.7 WSW 20 39 11 21 1011.2 1010.1 0.0
11/01:30pm 13.2 7.4 -1.5 36 6.1 W 19 37 10 20 1010.8 1009.7 0.0
11/01:00pm 13.0 7.2 -1.7 36 6.1 SW 19 37 10 20 1010.7 1009.6 0.0
11/12:30pm 12.7 6.7 -1.6 37 5.9 W 20 30 11 16 1010.8 1009.7 0.0
11/12:00pm 11.7 6.4 -0.4 43 5.1 WSW 17 26 9 14 1010.9 1009.8 0.0
11/11:30am 11.8 6.1 -0.7 42 5.2 WSW 19 28 10 15 1011.0 1009.9 0.0
11/11:00am 11.5 4.5 -0.3 44 5.0 W 26 41 14 22 1011.0 1009.9 0.0
11/10:30am 10.7 6.2 -0.4 46 4.6 W 13 24 7 13 1011.1 1010.0 0.0
11/10:00am 10.1 4.4 -1.0 46 4.5 WSW 19 30 10 16 1010.9 1009.8 0.0
11/09:30am 10.1 5.3 -0.1 49 4.2 WSW 15 26 8 14 1010.9 1009.8 0.0
11/09:00am 9.3 4.4 -0.3 51 4.0 W 15 22 8 12 1010.6 1009.5 0.8
11/08:30am 8.6 3.8 0.1 55 3.5 W 15 22 8 12 1010.3 1009.2 0.8
11/08:00am 7.7 1.7 -1.3 53 3.6 W 20 30 11 16 1009.8 1008.7 0.8
11/07:30am 7.6 3.2 0.3 60 3.0 WNW 13 24 7 13 1009.5 1008.4 0.8
11/07:00am 6.2 2.8 2.1 75 1.7 NW 9 17 5 9 1009.1 1008.0 0.8
11/06:30am 5.5 3.4 1.4 75 1.7 WNW 2 9 1 5 1008.9 1007.8 0.8
11/06:00am 5.8 0.8 1.2 72 1.9 W 17 26 9 14 1008.6 1007.5 0.8
11/05:30am 6.2 0.7 1.9 74 1.8 W 20 32 11 17 1008.4 1007.2 0.8
11/05:00am 5.2 -1.7 2.4 82 1.2 SW 28 50 15 27 1008.7 1007.6 0.6
11/04:59am 5.3 -1.6 2.3 81 1.3 SW 28 50 15 27 1008.7 1007.6 0.4
11/04:30am 9.3 3.7 0.0 52 3.8 W 19 28 10 15 1007.2 1006.1 0.0
11/04:00am 8.9 5.5 1.6 60 3.1 W 9 20 5 11 1007.0 1005.9 0.0
11/03:30am 9.3 5.5 1.7 59 3.3 WSW 11 24 6 13 1007.1 1006.0 0.0
11/03:00am 10.6 6.8 1.9 55 3.8 WNW 11 22 6 12 1006.8 1005.6 0.0
11/02:30am 11.0 7.3 2.6 56 3.8 WNW 11 15 6 8 1006.8 1005.6 0.0
11/02:00am 11.4 7.0 2.7 55 3.9 W 15 22 8 12 1007.0 1005.9 0.0
11/01:30am 11.3 7.6 4.3 62 3.3 NW 13 20 7 11 1007.1 1006.0 0.0
11/01:00am 10.8 7.8 5.8 71 2.4 NNW 11 17 6 9 1007.2 1006.1 0.0
11/12:30am 10.6 8.0 6.2 74 2.1 NNW 9 17 5 9 1007.3 1006.2 0.0
11/12:00am 10.8 8.3 6.4 74 2.1 NW 9 15 5 8 1007.5 1006.4 0.0
 
Date/Time
EST
Temp
°C
App
Temp
°C
Dew
Point
°C
Rel
Hum
%
Delta-T
°C
Wind Press
QNH
hPa
Press
MSL
hPa
Rain since
9am
mm
Dir  Spd
km/h
Gust
km/h
Spd
kts
Gust
kts
10/11:30pm 11.1 7.8 6.5 73 2.2 NW 13 20 7 11 1007.7 1006.6 0.0
10/11:00pm 10.6 7.8 7.1 79 1.7 NW 11 17 6 9 1007.7 1006.6 0.0
10/10:30pm 10.2 7.9 7.3 82 1.4 NW 9 13 5 7 1008.0 1006.9 0.0
10/10:00pm 10.3 7.1 6.8 79 1.7 N 13 17 7 9 1008.5 1007.4 0.0
10/09:30pm 11.3 7.9 6.0 70 2.6 NNW 13 20 7 11 1008.5 1007.4 0.0
10/09:00pm 11.3 7.5 5.6 68 2.7 N 15 20 8 11 1008.7 1007.6 0.0
10/08:30pm 11.2 8.1 5.5 68 2.7 NNW 11 20 6 11 1008.6 1007.5 0.0
10/08:00pm 10.7 7.9 5.3 69 2.6 NW 9 17 5 9 1008.7 1007.6 0.0
10/07:30pm 10.9 7.3 4.8 66 2.9 N 13 22 7 12 1008.4 1007.2 0.0
10/07:00pm 11.4 8.1 4.8 64 3.1 NNW 11 17 6 9 1008.5 1007.4 0.0
10/06:30pm 11.4 7.3 4.4 62 3.3 NW 15 20 8 11 1008.2 1007.1 0.0
10/06:00pm 12.0 8.6 4.0 58 3.7 NW 11 20 6 11 1008.0 1006.9 0.0
10/05:30pm 12.6 8.7 3.6 54 4.2 WNW 13 20 7 11 1007.9 1006.8 0.0
10/05:00pm 13.5 9.0 4.1 53 4.4 W 17 26 9 14 1007.6 1006.5 0.0
10/04:30pm 14.0 9.0 3.8 50 4.8 W 19 30 10 16 1007.3 1006.2 0.0
10/04:00pm 15.0 10.0 3.8 47 5.3 W 19 30 10 16 1007.2 1006.1 0.0
10/03:30pm 15.4 10.6 4.5 48 5.3 W 19 32 10 17 1006.8 1005.6 0.0
10/03:00pm 15.4 9.6 4.5 48 5.3 WNW 24 33 13 18 1006.6 1005.4 0.0
10/02:30pm 15.2 9.7 4.0 47 5.3 W 22 35 12 19 1006.4 1005.3 0.0
10/02:00pm 15.4 8.9 4.5 48 5.3 WNW 28 41 15 22 1006.1 1005.0 0.0
10/01:30pm 15.3 10.2 4.1 47 5.3 WNW 20 32 11 17 1006.1 1005.0 0.0
10/01:00pm 15.9 11.1 4.6 47 5.5 W 19 28 10 15 1006.0 1004.9 0.0
10/12:30pm 14.1 9.2 4.1 51 4.7 NW 19 30 10 16 1006.1 1005.0 0.0
10/12:00pm 14.8 9.3 4.2 49 5.1 NW 22 35 12 19 1006.0 1004.9 0.0
10/11:30am 16.2 11.7 4.3 45 5.7 NW 17 35 9 19 1006.3 1005.2 0.0
10/11:00am 15.6 10.7 4.3 47 5.5 WNW 19 28 10 15 1006.7 1005.5 0.0
10/10:30am 15.2 11.2 3.0 44 5.7 NW 13 26 7 14 1006.6 1005.4 0.0
10/10:00am 14.2 10.8 4.2 51 4.8 WNW 11 15 6 8 1006.9 1005.7 0.0
10/09:30am 12.7 9.0 4.2 56 4.0 NW 13 20 7 11 1007.0 1005.9 0.0
10/09:00am 12.4 8.6 3.9 56 4.0 NW 13 20 7 11 1006.9 1005.7 0.0
10/08:30am 12.4 9.2 5.1 61 3.5 NW 11 19 6 10 1006.8 1005.6 0.0
10/08:00am 10.6 9.4 6.6 76 2.0 SSE 2 7 1 4 1006.8 1005.6 0.0
10/07:30am 8.7 8.1 7.5 92 0.6 CALM 0 0 0 0 1006.7 1005.5 0.0
10/07:00am 8.2 7.5 6.8 91 0.7 CALM 0 0 0 0 1006.4 1005.3 0.0
10/06:30am 8.0 7.2 6.5 90 0.7 CALM 0 0 0 0 1006.2 1005.1 0.0
10/06:00am 7.8 7.0 6.4 91 0.7 CALM 0 0 0 0 1006.7 1005.5 0.0
10/05:30am 7.9 6.3 6.5 91 0.7 ESE 4 7 2 4 1006.3 1005.2 0.0
10/05:00am 7.7 6.9 6.6 93 0.5 CALM 0 0 0 0 1006.3 1005.2 0.0
10/04:30am 6.6 5.8 6.5 99 0.0 CALM 0 0 0 0 1006.4 1005.3 0.0
10/04:00am 6.1 5.1 5.7 97 0.2 CALM 0 7 0 4 1006.0 1004.9 0.0
10/03:30am 6.0 5.0 5.6 97 0.2 CALM 0 0 0 0 1006.6 1005.4 0.0
10/03:00am 6.1 5.1 5.5 96 0.3 CALM 0 7 0 4 1006.6 1005.4 0.0
10/02:30am 6.2 5.2 5.5 95 0.3 CALM 0 0 0 0 1006.6 1005.4 0.0
10/02:00am 6.5 5.4 5.3 92 0.6 CALM 0 6 0 3 1006.1 1005.0 0.0
10/01:30am 7.3 5.3 6.4 94 0.4 E 6 9 3 5 1006.3 1005.2 0.0
10/01:00am 7.2 6.0 6.5 95 0.3 SSW 2 7 1 4 1007.1 1006.0 0.0
10/12:30am 7.4 6.6 6.3 93 0.5 CALM 0 0 0 0 1007.2 1006.1 0.0
10/12:00am 8.1 6.0 6.7 91 0.7 E 7 9 4 5 1006.8 1005.6 0.0
 
Date/Time
EST
Temp
°C
App
Temp
°C
Dew
Point
°C
Rel
Hum
%
Delta-T
°C
Wind Press
QNH
hPa
Press
MSL
hPa
Rain since
9am
mm
Dir  Spd
km/h
Gust
km/h
Spd
kts
Gust
kts
09/11:30pm 8.9 8.3 7.2 89 0.8 CALM 0 0 0 0 1007.4 1006.3 0.0
09/11:00pm 8.9 7.4 7.0 88 0.9 S 4 7 2 4 1007.2 1006.1 0.0
09/10:30pm 9.4 8.7 6.8 84 1.3 CALM 0 0 0 0 1007.6 1006.5 0.0
09/10:00pm 9.8 9.1 6.9 82 1.4 CALM 0 0 0 0 1007.6 1006.5 0.0
09/09:30pm 11.1 10.5 7.4 78 1.8 CALM 0 0 0 0 1007.6 1006.5 0.0
09/09:00pm 12.6 11.7 7.9 73 2.4 NNW 2 6 1 3 1007.4 1006.3 0.0
09/08:30pm 13.5 11.5 7.1 65 3.2 WSW 7 11 4 6 1007.3 1006.2 0.0
09/08:00pm 14.7 12.9 7.0 60 3.9 WSW 6 11 3 6 1007.1 1006.0 0.0
09/07:30pm 16.1 13.1 7.6 57 4.4 NW 13 20 7 11 1006.7 1005.5 0.0
09/07:00pm 16.3 12.8 7.3 55 4.6 NW 15 24 8 13 1006.0 1004.9 0.0
09/06:30pm 17.2 13.6 6.7 50 5.4 NW 15 28 8 15 1005.8 1004.7 0.0
09/06:00pm 17.8 14.9 6.7 48 5.7 NW 11 19 6 10 1005.6 1004.5 0.0
09/05:30pm 19.0 15.3 6.5 44 6.4 NW 15 22 8 12 1005.2 1004.0 0.0
09/05:00pm 20.3 16.8 7.3 43 6.9 NW 15 26 8 14 1004.9 1003.7 0.0
09/04:30pm 21.1 17.4 8.0 43 7.0 NW 17 30 9 16 1004.6 1003.5 0.0
09/04:00pm 21.9 18.0 7.3 39 7.8 WNW 17 26 9 14 1004.5 1003.4 0.0
09/03:30pm 22.0 17.1 7.0 38 7.9 NW 22 30 12 16 1004.5 1003.4 0.0
09/03:00pm 22.5 17.8 7.9 39 7.9 NW 22 35 12 19 1004.3 1003.2 0.0
09/02:30pm 22.5 17.4 7.5 38 8.0 W 24 39 13 21 1004.2 1003.1 0.0
09/02:00pm 23.0 18.9 10.1 44 7.3 WNW 22 33 12 18 1003.9 1002.7 0.0
09/01:30pm 22.9 19.1 11.3 48 6.7 WNW 22 35 12 19 1004.0 1002.9 0.0
09/01:00pm 22.6 18.1 10.1 45 7.0 WNW 24 37 13 20 1004.1 1003.0 0.0
09/12:30pm 23.1 17.2 9.1 41 7.7 WNW 30 44 16 24 1004.4 1003.3 0.0
09/12:00pm 23.5 19.4 8.8 39 8.1 WNW 20 35 11 19 1004.5 1003.4 0.0
09/11:30am 23.1 19.3 9.8 43 7.4 NW 20 32 11 17 1005.1 1003.9 0.0
09/11:00am 22.5 19.7 10.0 45 7.0 NW 15 22 8 12 1005.7 1004.6 0.0
09/10:30am 21.4 18.8 9.3 46 6.6 NNW 13 20 7 11 1005.8 1004.7 0.0
09/10:00am 20.9 19.4 11.8 56 5.2 NNW 11 19 6 10 1006.2 1005.1 0.0
09/09:30am 18.9 17.8 11.9 64 4.0 N 9 17 5 9 1006.7 1005.5 0.0
09/09:00am 17.4 18.0 11.9 70 3.1 CALM 0 4 0 2 1007.0 1005.9 0.0
09/08:30am 17.4 16.0 12.1 71 3.0 NNE 11 15 6 8 1006.9 1005.7 0.0
09/08:00am 15.5 16.5 13.2 86 1.3 CALM 0 6 0 3 1007.1 1006.0 0.0
09/07:30am 13.4 13.1 13.2 99 0.1 E 7 9 4 5 1007.0 1005.9 0.0
09/07:00am 11.7 12.2 11.5 99 0.1 CALM 0 2 0 1 1006.9 1005.7 0.0
09/06:30am 11.7 11.8 11.5 99 0.1 NE 2 7 1 4 1006.4 1005.3 0.0
09/06:00am 12.0 12.2 11.8 99 0.1 N 2 7 1 4 1006.3 1005.2 0.0
09/05:30am 12.1 12.7 11.9 99 0.1 CALM 0 0 0 0 1006.7 1005.5 0.0
09/05:00am 12.0 12.5 11.5 97 0.3 CALM 0 0 0 0 1007.0 1005.9 0.0
09/04:30am 12.1 12.7 11.9 99 0.1 CALM 0 0 0 0 1007.1 1006.0 0.0
09/04:00am 12.1 12.7 11.9 99 0.1 CALM 0 0 0 0 1007.1 1006.0 0.0
09/03:30am 12.1 12.7 11.8 98 0.2 CALM 0 0 0 0 1007.2 1006.1 0.0
09/03:00am 12.0 12.6 11.8 99 0.1 CALM 0 0 0 0 1007.6 1006.5 0.0
09/02:30am 11.5 11.9 11.3 99 0.1 CALM 0 0 0 0 1008.0 1006.9 0.0
09/02:00am 11.8 12.3 11.6 99 0.1 CALM 0 0 0 0 1008.5 1007.4 0.0
09/01:30am 11.6 12.0 11.4 99 0.1 CALM 0 0 0 0 1008.9 1007.8 0.0
09/01:00am 11.7 12.1 11.4 98 0.2 CALM 0 0 0 0 1009.1 1008.0 0.0
09/12:30am 11.6 11.9 10.8 95 0.4 CALM 0 0 0 0 1009.2 1008.1 0.0
09/12:00am 11.7 11.9 10.6 93 0.6 CALM 0 0 0 0 1009.4 1008.3 0.0
 
Date/Time
EST
Temp
°C
App
Temp
°C
Dew
Point
°C
Rel
Hum
%
Delta-T
°C
Wind Press
QNH
hPa
Press
MSL
hPa
Rain since
9am
mm
Dir  Spd
km/h
Gust
km/h
Spd
kts
Gust
kts
08/11:30pm 12.1 12.2 10.0 87 1.1 CALM 0 0 0 0 1009.6 1008.5 0.0
08/11:00pm 12.9 13.1 10.4 85 1.3 CALM 0 0 0 0 1009.9 1008.9 0.0
08/10:30pm 13.1 12.9 10.5 84 1.4 ESE 2 7 1 4 1010.4 1009.3 0.0
08/10:00pm 13.8 13.0 11.0 83 1.5 ENE 6 7 3 4 1010.6 1009.5 0.0
08/09:30pm 13.6 13.5 10.8 83 1.5 ENE 2 9 1 5 1010.9 1009.8 0.0
08/09:00pm 14.5 14.5 11.1 80 1.9 ENE 2 7 1 4 1010.7 1009.6 0.0
08/08:30pm 14.8 15.1 10.8 77 2.2 CALM 0 0 0 0 1010.8 1009.7 0.0
08/08:00pm 16.1 16.0 10.8 71 2.9 NE 2 6 1 3 1010.6 1009.5 0.0
08/07:30pm 16.7 16.0 10.1 65 3.6 NNW 4 9 2 5 1010.5 1009.4 0.0
08/07:00pm 18.7 17.6 10.8 60 4.4 N 7 9 4 5 1010.3 1009.2 0.0
08/06:30pm 19.8 18.7 10.5 55 5.2 N 7 11 4 6 1010.4 1009.3 0.0
08/06:00pm 20.9 19.1 10.7 52 5.7 N 11 15 6 8 1010.4 1009.3 0.0
08/05:30pm 21.9 20.1 11.0 50 6.2 N 11 19 6 10 1010.1 1009.1 0.0
08/05:00pm 22.9 20.9 10.0 44 7.2 NNW 11 19 6 10 1010.0 1009.0 0.0
08/04:30pm 24.0 22.2 10.7 43 7.6 NW 11 19 6 10 1009.9 1008.9 0.0

Latest Capital City Observations: Canberra | Sydney | Melbourne | Brisbane | Adelaide | Perth | Hobart | Darwin

Other formats

Comma delimited format used in spreadsheet applications
http://www.bom.gov.au/fwo/IDN60903/IDN60903.94925.axf

JavaScript Object Notation format (JSON) in row-major order
http://www.bom.gov.au/fwo/IDN60903/IDN60903.94925.json

Data quality

Most of these data are generated automatically and are frequently updated. Quality checks on data are not normally performed. It is possible for incorrect values to appear. Refer to information at About Latest Weather Observations and please check the disclaimer before using these data.